Hlavní strana
METAR-TAF:

METAR-TAF

Letiště :

Moroni, Komory

zeměpisná šířka: 11-32S, zeměpisná délka: 043-16E, výška: 29 m

Aktuální stav počasí

Zpráva byla vytvořena před 54 minutami, v 08:00 UTC
Jižní vítr 19 kt s nárazy do 30 kt
Teplota 29°C
Vlhkost vzduchu 62%
Tlak 1019 hPa
Viditelnost 10 km a více
Skoro jasno ve výšce 2000 ft
Polojasno ve výšce 3000 ft

METAR: FMCH 160800Z 18019G30KT 9999 FEW020 SCT030 29/21 Q1019 NOSIG

Čas: 11:54 (08:54 UTC)

Předpověď počasí

Zpráva byla vytvořena před 3 hodinami a 54 minutami, v 05:00 UTC
Předpověď platná od 16 v 06 UTC do 17 v 12 UTC
Jihojihozápadní vítr 15 kt
Viditelnost 10 km a více
Skoro jasno ve výšce 2000 ft
Změna
od 16 v 16 UTC do 16 v 18 UTC
Východní vítr 7 kt
Změna
od 17 v 05 UTC do 17 v 07 UTC
Jihojihozápadní vítr 12 kt

TAF: FMCH 160500Z 1606/1712 20015KT 9999 FEW020 BECMG 1616/1618 10007KT BECMG 1705/1707 20012KT

Stav a předpovědi počasí z více než 4 000 letišť (zprávy METAR a TAF).

Červené a žluté tečky na mapě představují dostupné meteorologické stanice.

Když kurzor umístíte na tečku, zobrazí se název stanice.

Pak kliknutím zobrazíte stav a předpověď počasí.

Chcete-li změnit mapu, kliknutím na zelené tlačítko se znaménkem +mapu přiblížíte, kliknutím na zelené tlačítko se znaménkem – mapu oddálíte a kliknutím na zelené šipky přejdete na sousední mapy.


METAR-TAF: